createdAt,value
2017-11-28T00:01:40.943Z,7.00
2017-11-28T00:04:08.361Z,7.00
2017-11-28T00:06:35.803Z,6.90
2017-11-28T00:09:03.228Z,6.90
2017-11-28T00:11:30.670Z,6.90
2017-11-28T00:13:58.910Z,6.90
2017-11-28T00:16:27.112Z,6.90
2017-11-28T00:18:54.541Z,6.90
2017-11-28T00:21:22.783Z,6.80
2017-11-28T00:23:50.215Z,6.80
2017-11-28T00:26:17.637Z,6.80
2017-11-28T00:28:45.077Z,6.80
2017-11-28T00:31:12.503Z,6.80
2017-11-28T00:33:39.946Z,6.80
2017-11-28T00:36:07.378Z,6.70
2017-11-28T00:38:34.817Z,6.80
2017-11-28T00:41:03.008Z,6.70
2017-11-28T00:43:30.446Z,6.70
2017-11-28T00:45:57.880Z,6.70
2017-11-28T00:48:25.310Z,6.70
2017-11-28T00:50:52.763Z,6.70
2017-11-28T00:53:20.194Z,6.70
2017-11-28T00:55:47.635Z,6.70
2017-11-28T00:58:15.058Z,6.70
2017-11-28T01:00:42.523Z,6.60
2017-11-28T01:03:09.942Z,6.60
2017-11-28T01:05:37.394Z,6.60
2017-11-28T01:08:04.828Z,6.70
2017-11-28T01:10:32.274Z,6.70
2017-11-28T01:13:00.455Z,6.70
2017-11-28T01:15:27.891Z,6.60
2017-11-28T01:17:55.309Z,6.70
2017-11-28T01:20:22.750Z,6.60
2017-11-28T01:22:50.185Z,6.60
2017-11-28T01:25:17.611Z,6.60
2017-11-28T01:27:45.810Z,6.60
2017-11-28T01:30:13.234Z,6.60
2017-11-28T01:32:40.668Z,6.50
2017-11-28T01:35:08.094Z,6.60
2017-11-28T01:37:35.524Z,6.60
2017-11-28T01:40:02.957Z,6.50
2017-11-28T01:42:31.158Z,6.60
2017-11-28T01:44:59.493Z,6.50
2017-11-28T01:47:26.934Z,6.50
2017-11-28T01:49:54.361Z,6.50
2017-11-28T01:52:21.803Z,6.50
2017-11-28T01:54:49.222Z,6.50
2017-11-28T01:57:16.666Z,6.50
2017-11-28T01:59:44.098Z,6.50
2017-11-28T02:02:11.542Z,5.80
2017-11-28T02:04:38.983Z,6.50
2017-11-28T02:07:06.405Z,6.50
2017-11-28T02:09:34.014Z,6.50
2017-11-28T02:12:01.437Z,6.50
2017-11-28T02:14:29.651Z,6.50
2017-11-28T02:16:57.074Z,6.50
2017-11-28T02:19:24.510Z,6.40
2017-11-28T02:21:51.943Z,6.40
2017-11-28T02:24:19.384Z,6.40
2017-11-28T02:26:46.808Z,6.40
2017-11-28T02:29:14.247Z,6.50
2017-11-28T02:31:42.456Z,6.50
2017-11-28T02:34:09.882Z,6.40
2017-11-28T02:36:37.309Z,6.50
2017-11-28T02:39:04.761Z,6.50
2017-11-28T02:41:32.194Z,6.50
2017-11-28T02:44:05.263Z,6.50
2017-11-28T02:46:32.670Z,6.50
2017-11-28T02:51:54.601Z,6.40
2017-11-28T02:54:22.033Z,6.40
2017-11-28T02:56:49.455Z,6.40
2017-11-28T02:59:16.881Z,6.40
2017-11-28T03:01:47.924Z,6.40
2017-11-28T03:04:15.354Z,6.40
2017-11-28T03:06:42.791Z,6.40
2017-11-28T03:09:12.654Z,6.40
2017-11-28T03:11:40.070Z,6.40
2017-11-28T03:14:10.222Z,6.40
2017-11-28T03:16:38.649Z,6.40
2017-11-28T03:19:10.495Z,6.40
2017-11-28T03:21:37.961Z,6.40
2017-11-28T03:26:59.927Z,6.40
2017-11-28T03:29:37.746Z,6.30
2017-11-28T03:32:05.171Z,6.30
2017-11-28T03:34:32.595Z,6.30
2017-11-28T03:37:00.043Z,6.30
2017-11-28T03:39:28.233Z,6.30
2017-11-28T03:41:55.669Z,6.30
2017-11-28T03:47:15.530Z,6.30
2017-11-28T03:49:42.946Z,6.30
2017-11-28T03:52:10.372Z,6.30
2017-11-28T03:54:37.810Z,6.40
2017-11-28T03:57:05.226Z,6.40
2017-11-28T03:59:32.657Z,6.30
2017-11-28T04:02:00.094Z,6.30
2017-11-28T04:04:28.293Z,6.30
2017-11-28T04:06:55.726Z,6.30
2017-11-28T04:09:23.163Z,6.30
2017-11-28T04:11:50.596Z,6.30
2017-11-28T04:14:18.042Z,6.30
2017-11-28T04:16:45.999Z,6.20
2017-11-28T04:19:13.489Z,6.20
2017-11-28T04:21:40.938Z,6.20
2017-11-28T04:24:08.372Z,6.20
2017-11-28T04:26:35.806Z,6.30
2017-11-28T04:29:03.236Z,6.30
2017-11-28T04:31:30.670Z,6.30
2017-11-28T04:33:58.100Z,6.30
2017-11-28T04:36:25.536Z,6.30
2017-11-28T04:38:53.730Z,6.20
2017-11-28T04:41:21.202Z,6.30
2017-11-28T04:43:48.631Z,6.30
2017-11-28T04:46:16.060Z,6.30
2017-11-28T04:48:43.494Z,6.30
2017-11-28T04:51:10.923Z,6.20
2017-11-28T04:53:38.355Z,6.20
2017-11-28T04:56:05.787Z,6.20
2017-11-28T04:58:33.217Z,6.20
2017-11-28T05:03:33.489Z,6.20
2017-11-28T05:06:00.911Z,6.20
2017-11-28T05:08:28.596Z,6.20
2017-11-28T05:10:56.013Z,6.20
2017-11-28T05:13:23.431Z,6.20
2017-11-28T05:15:50.866Z,6.20
2017-11-28T05:18:18.403Z,6.10
2017-11-28T05:20:45.836Z,6.10
2017-11-28T05:23:13.257Z,6.10
2017-11-28T05:25:40.690Z,6.10
2017-11-28T05:28:08.127Z,6.10
2017-11-28T05:30:36.332Z,6.10
2017-11-28T05:33:03.763Z,6.10
2017-11-28T05:35:31.213Z,6.10
2017-11-28T05:37:58.618Z,6.10
2017-11-28T05:40:26.068Z,6.10
2017-11-28T05:42:53.497Z,6.10
2017-11-28T05:45:21.678Z,6.10
2017-11-28T05:47:49.116Z,6.10
2017-11-28T05:50:16.538Z,6.10
2017-11-28T05:52:43.965Z,6.10
2017-11-28T05:55:11.398Z,6.10
2017-11-28T05:57:38.839Z,6.10
2017-11-28T06:00:07.026Z,6.10
2017-11-28T06:02:34.457Z,6.10
2017-11-28T06:05:02.646Z,6.10
2017-11-28T06:07:30.095Z,6.10
2017-11-28T06:09:57.505Z,6.10
2017-11-28T06:12:25.723Z,6.10
2017-11-28T06:14:53.911Z,6.10
2017-11-28T06:17:21.357Z,6.10
2017-11-28T06:19:48.778Z,6.10
2017-11-28T06:22:16.199Z,6.10
2017-11-28T06:24:43.642Z,6.10
2017-11-28T06:27:11.069Z,6.10
2017-11-28T06:29:39.274Z,6.20
2017-11-28T06:32:06.697Z,6.20
2017-11-28T06:34:35.206Z,6.20
2017-11-28T06:37:02.626Z,6.20
2017-11-28T06:39:31.737Z,6.20
2017-11-28T06:41:59.927Z,6.20
2017-11-28T06:44:27.361Z,6.20
2017-11-28T06:46:54.777Z,6.20
2017-11-28T06:49:22.220Z,6.20
2017-11-28T06:51:49.724Z,6.20
2017-11-28T06:54:17.150Z,6.20
2017-11-28T06:56:50.359Z,6.20
2017-11-28T06:59:17.786Z,6.20
2017-11-28T07:01:45.215Z,6.20
2017-11-28T07:04:12.639Z,6.20
2017-11-28T07:06:41.235Z,6.20
2017-11-28T07:09:08.666Z,6.20
2017-11-28T07:11:36.097Z,6.20
2017-11-28T07:14:03.517Z,6.20
2017-11-28T07:16:30.954Z,6.20
2017-11-28T07:18:59.142Z,6.20
2017-11-28T07:21:26.581Z,6.20
2017-11-28T07:23:54.774Z,6.30
2017-11-28T07:26:22.199Z,6.30
2017-11-28T07:28:49.621Z,6.30
2017-11-28T07:31:17.079Z,6.30
2017-11-28T07:33:44.511Z,6.30
2017-11-28T07:36:11.937Z,6.30
2017-11-28T07:38:39.377Z,6.40
2017-11-28T07:41:06.808Z,6.40
2017-11-28T07:43:34.234Z,6.40
2017-11-28T07:46:01.649Z,6.40
2017-11-28T07:48:29.854Z,6.40
2017-11-28T07:50:57.286Z,6.40
2017-11-28T07:53:24.729Z,6.40
2017-11-28T07:55:52.155Z,6.40
2017-11-28T07:58:19.594Z,6.50
2017-11-28T08:00:47.014Z,6.50
2017-11-28T08:03:15.220Z,6.50
2017-11-28T08:05:42.636Z,6.50
2017-11-28T08:08:10.091Z,6.50
2017-11-28T08:10:37.528Z,6.60
2017-11-28T08:13:04.947Z,6.70
2017-11-28T08:15:32.387Z,6.70
2017-11-28T08:17:59.816Z,6.70
2017-11-28T08:20:28.005Z,6.80
2017-11-28T08:22:55.432Z,6.80
2017-11-28T08:25:22.875Z,6.90
2017-11-28T08:27:50.294Z,6.90
2017-11-28T08:30:17.723Z,7.00
2017-11-28T08:32:45.150Z,7.10
2017-11-28T08:35:12.606Z,7.10
2017-11-28T08:37:40.043Z,7.10
2017-11-28T08:40:07.475Z,7.20
2017-11-28T08:42:34.918Z,7.20
2017-11-28T08:45:02.344Z,7.30
2017-11-28T08:47:29.776Z,7.40
2017-11-28T08:49:57.202Z,7.50
2017-11-28T08:52:24.642Z,7.60
2017-11-28T08:54:52.074Z,7.60
2017-11-28T08:57:19.519Z,7.60
2017-11-28T08:59:46.948Z,7.50
2017-11-28T09:02:14.395Z,7.50
2017-11-28T09:04:41.821Z,7.40
2017-11-28T09:07:09.259Z,7.40
2017-11-28T09:09:37.459Z,7.40
2017-11-28T09:12:04.881Z,7.40
2017-11-28T09:14:33.073Z,7.20
2017-11-28T09:17:00.561Z,7.20
2017-11-28T09:19:28.008Z,7.10
2017-11-28T09:21:55.434Z,7.10
2017-11-28T09:24:22.854Z,6.90
2017-11-28T09:26:50.285Z,6.90
2017-11-28T09:29:17.720Z,6.90
2017-11-28T09:31:45.146Z,6.80
2017-11-28T09:34:12.586Z,6.80
2017-11-28T09:36:40.011Z,6.80
2017-11-28T09:39:07.447Z,6.80
2017-11-28T09:41:34.867Z,6.90
2017-11-28T09:44:03.083Z,6.80
2017-11-28T09:46:30.490Z,6.80
2017-11-28T09:48:57.943Z,6.80
2017-11-28T09:51:25.355Z,6.80
2017-11-28T09:53:52.785Z,6.70
2017-11-28T09:56:20.226Z,6.80
2017-11-28T09:58:48.414Z,6.70
2017-11-28T10:01:15.845Z,6.70
2017-11-28T10:03:43.271Z,6.70
2017-11-28T10:06:10.710Z,6.70
2017-11-28T10:08:38.125Z,6.70
2017-11-28T10:11:05.567Z,6.70
2017-11-28T10:13:33.753Z,6.70
2017-11-28T10:16:01.183Z,6.60
2017-11-28T10:18:28.619Z,6.70
2017-11-28T10:20:56.040Z,6.70
2017-11-28T10:23:23.475Z,6.70
2017-11-28T10:25:51.660Z,6.60
2017-11-28T10:28:19.094Z,6.60
2017-11-28T10:30:46.521Z,6.60
2017-11-28T10:33:13.973Z,6.60
2017-11-28T10:35:41.407Z,6.60
2017-11-28T10:38:08.841Z,6.70
2017-11-28T10:40:36.264Z,6.70
2017-11-28T10:43:03.705Z,6.80
2017-11-28T10:45:31.130Z,7.00
2017-11-28T10:47:58.579Z,7.00
2017-11-28T10:50:26.007Z,7.10
2017-11-28T10:52:53.436Z,7.20
2017-11-28T10:55:20.880Z,7.30
2017-11-28T10:57:48.307Z,7.50
2017-11-28T11:00:16.137Z,7.60
2017-11-28T11:02:43.559Z,7.70
2017-11-28T11:05:10.989Z,7.90
2017-11-28T11:07:38.417Z,8.00
2017-11-28T11:10:05.863Z,8.10
2017-11-28T11:12:33.288Z,8.20
2017-11-28T11:15:00.722Z,8.30
2017-11-28T11:17:28.164Z,8.30
2017-11-28T11:19:55.585Z,8.40
2017-11-28T11:22:23.019Z,8.50
2017-11-28T11:24:50.462Z,8.60
2017-11-28T11:27:17.894Z,8.50
2017-11-28T11:29:45.337Z,8.50
2017-11-28T11:32:12.762Z,8.50
2017-11-28T11:34:40.182Z,8.50
2017-11-28T11:37:07.616Z,8.50
2017-11-28T11:39:35.805Z,8.40
2017-11-28T11:42:03.251Z,8.40
2017-11-28T11:44:30.677Z,8.40
2017-11-28T11:46:58.106Z,8.30
2017-11-28T11:49:25.530Z,8.50
2017-11-28T11:51:52.989Z,8.50
2017-11-28T11:54:20.386Z,8.70
2017-11-28T11:56:47.815Z,8.90
2017-11-28T11:59:15.293Z,9.00
2017-11-28T12:01:42.722Z,9.10
2017-11-28T12:04:10.139Z,9.20
2017-11-28T12:06:37.575Z,9.20
2017-11-28T12:09:04.990Z,9.20
2017-11-28T12:11:32.447Z,9.00
2017-11-28T12:13:59.865Z,8.80
2017-11-28T12:16:27.311Z,8.70
2017-11-28T12:18:54.738Z,8.60
2017-11-28T12:21:22.917Z,8.30
2017-11-28T12:23:50.351Z,8.30
2017-11-28T12:26:17.775Z,8.30
2017-11-28T12:28:45.215Z,9.30
2017-11-28T12:31:12.628Z,8.40
2017-11-28T12:33:40.826Z,8.50
2017-11-28T12:36:08.251Z,8.60
2017-11-28T12:38:35.686Z,8.50
2017-11-28T12:41:03.119Z,8.40
2017-11-28T12:43:30.551Z,8.30
2017-11-28T12:45:57.970Z,8.30
2017-11-28T12:48:25.409Z,8.20
2017-11-28T12:50:52.833Z,8.10
2017-11-28T12:53:20.249Z,8.10
2017-11-28T12:55:48.572Z,8.10
2017-11-28T12:58:15.978Z,8.10
2017-11-28T13:00:44.179Z,8.00
2017-11-28T13:03:11.599Z,8.00
2017-11-28T13:05:39.040Z,8.00
2017-11-28T13:08:06.449Z,7.90
2017-11-28T13:10:33.890Z,8.00
2017-11-28T13:13:02.079Z,7.90
2017-11-28T13:15:29.515Z,7.90
2017-11-28T13:17:56.942Z,7.90
2017-11-28T13:20:24.376Z,7.90
2017-11-28T13:22:51.820Z,8.00
2017-11-28T13:25:19.244Z,8.00
2017-11-28T13:27:46.670Z,8.20
2017-11-28T13:30:14.118Z,8.30
2017-11-28T13:32:41.583Z,8.30
2017-11-28T13:35:08.999Z,8.30
2017-11-28T13:37:36.480Z,8.30
2017-11-28T13:40:03.905Z,8.30
2017-11-28T13:42:31.330Z,8.30
2017-11-28T13:44:58.772Z,8.30
2017-11-28T13:47:26.186Z,8.20
2017-11-28T13:49:53.606Z,8.20
2017-11-28T13:52:21.043Z,8.20
2017-11-28T13:54:48.472Z,8.10
2017-11-28T13:57:15.900Z,8.10
2017-11-28T13:59:43.321Z,7.90
2017-11-28T14:02:10.764Z,7.80
2017-11-28T14:04:38.967Z,7.80
2017-11-28T14:07:06.393Z,7.70
2017-11-28T14:09:33.830Z,7.80
2017-11-28T14:12:01.247Z,7.80
2017-11-28T14:14:28.695Z,7.90
2017-11-28T14:16:56.121Z,7.90
2017-11-28T14:19:25.193Z,8.30
2017-11-28T14:24:58.833Z,8.50
2017-11-28T14:27:31.841Z,8.50
2017-11-28T14:30:00.976Z,8.40
2017-11-28T14:32:34.074Z,8.30
2017-11-28T14:35:01.946Z,8.20
2017-11-28T14:37:29.367Z,8.10
2017-11-28T14:39:56.799Z,8.00
2017-11-28T14:42:40.999Z,8.00
2017-11-28T14:45:08.430Z,8.00
2017-11-28T14:47:35.845Z,8.00
2017-11-28T14:50:03.290Z,7.90
2017-11-28T14:52:32.612Z,7.90
2017-11-28T14:55:05.762Z,7.90
2017-11-28T14:57:34.634Z,7.90
2017-11-28T15:00:07.770Z,7.90
2017-11-28T15:02:40.910Z,7.80
2017-11-28T15:08:32.792Z,7.70
2017-11-28T15:11:02.992Z,7.60
2017-11-28T15:13:47.214Z,7.50
2017-11-28T15:16:33.065Z,7.60
2017-11-28T15:19:06.227Z,7.50
2017-11-28T15:21:36.449Z,7.50
2017-11-28T15:24:06.289Z,7.40
2017-11-28T15:26:35.322Z,7.40
2017-11-28T15:29:03.297Z,7.30
2017-11-28T15:31:30.736Z,7.30
2017-11-28T15:33:58.162Z,7.30
2017-11-28T15:36:25.611Z,7.30
2017-11-28T15:38:53.039Z,7.20
2017-11-28T15:41:20.467Z,7.20
2017-11-28T15:43:47.926Z,7.10
2017-11-28T15:46:15.348Z,7.10
2017-11-28T15:48:42.783Z,7.00
2017-11-28T15:51:10.207Z,7.00
2017-11-28T15:53:37.647Z,6.90
2017-11-28T15:56:05.077Z,6.80
2017-11-28T15:58:32.509Z,6.80
2017-11-28T16:01:00.713Z,6.70
2017-11-28T16:03:28.154Z,6.60
2017-11-28T16:05:55.578Z,6.60
2017-11-28T16:08:23.011Z,6.50
2017-11-28T16:10:51.407Z,6.40
2017-11-28T16:13:18.782Z,6.40
2017-11-28T16:15:46.985Z,6.20
2017-11-28T16:18:14.413Z,6.20
2017-11-28T16:20:42.629Z,6.10
2017-11-28T16:23:10.059Z,6.10
2017-11-28T16:25:37.501Z,6.10
2017-11-28T16:28:04.939Z,6.10
2017-11-28T16:30:32.396Z,6.10
2017-11-28T16:32:59.805Z,6.00
2017-11-28T16:35:27.261Z,6.00
2017-11-28T16:37:54.924Z,6.00
2017-11-28T16:40:22.363Z,6.00
2017-11-28T16:42:49.795Z,6.00
2017-11-28T16:45:17.988Z,6.10
2017-11-28T16:47:45.414Z,6.00
2017-11-28T16:50:12.841Z,6.10
2017-11-28T16:52:40.302Z,6.10
2017-11-28T16:55:07.728Z,6.10
2017-11-28T16:57:35.163Z,6.00
2017-11-28T17:00:02.597Z,6.00
2017-11-28T17:02:30.831Z,6.00
2017-11-28T17:04:58.246Z,6.00
2017-11-28T17:07:25.678Z,5.90
2017-11-28T17:09:53.110Z,5.90
2017-11-28T17:12:20.555Z,5.90
2017-11-28T17:14:47.982Z,5.90
2017-11-28T17:17:15.409Z,5.90
2017-11-28T17:19:43.592Z,5.80
2017-11-28T17:22:11.030Z,5.80
2017-11-28T17:24:38.455Z,5.90
2017-11-28T17:27:05.897Z,5.80
2017-11-28T17:29:33.318Z,5.80
2017-11-28T17:32:00.762Z,5.80
2017-11-28T17:34:28.971Z,5.90
2017-11-28T17:36:56.459Z,5.90
2017-11-28T17:39:26.692Z,5.90
2017-11-28T17:41:54.555Z,5.90
2017-11-28T17:44:22.011Z,5.90
2017-11-28T17:46:49.442Z,6.00
2017-11-28T17:49:16.947Z,6.00
2017-11-28T17:51:44.367Z,6.00
2017-11-28T17:54:11.793Z,6.00
2017-11-28T17:56:39.222Z,6.00
2017-11-28T17:59:06.676Z,6.00
2017-11-28T18:01:34.088Z,6.00
2017-11-28T18:04:01.531Z,6.10
2017-11-28T18:06:29.046Z,6.00
2017-11-28T18:08:56.462Z,6.10
2017-11-28T18:11:23.898Z,6.10
2017-11-28T18:13:51.345Z,6.10
2017-11-28T18:18:51.604Z,6.10
2017-11-28T18:21:19.198Z,6.10
2017-11-28T18:23:46.630Z,6.20
2017-11-28T18:26:14.074Z,6.20
2017-11-28T18:28:41.507Z,6.10
2017-11-28T18:31:08.931Z,6.20
2017-11-28T18:33:37.151Z,6.20
2017-11-28T18:36:04.844Z,6.20
2017-11-28T18:38:32.404Z,6.20
2017-11-28T18:40:59.839Z,6.20
2017-11-28T18:43:27.523Z,6.20
2017-11-28T18:45:55.762Z,6.20
2017-11-28T18:48:23.628Z,6.20
2017-11-28T18:50:51.066Z,6.20
2017-11-28T18:53:18.521Z,6.20
2017-11-28T18:55:45.955Z,6.20
2017-11-28T18:58:14.157Z,6.30
2017-11-28T19:00:41.577Z,6.20
2017-11-28T19:03:09.041Z,6.30
2017-11-28T19:05:36.477Z,6.30
2017-11-28T19:08:03.966Z,6.30
2017-11-28T19:10:31.398Z,6.30
2017-11-28T19:12:58.884Z,6.30
2017-11-28T19:15:26.334Z,6.30
2017-11-28T19:17:53.787Z,6.30
2017-11-28T19:20:21.217Z,6.20
2017-11-28T19:22:48.652Z,6.30
2017-11-28T19:25:16.171Z,6.20
2017-11-28T19:27:43.722Z,6.30
2017-11-28T19:30:11.149Z,6.30
2017-11-28T19:32:38.646Z,6.30
2017-11-28T19:35:06.205Z,6.30
2017-11-28T19:37:33.639Z,6.30
2017-11-28T19:40:01.939Z,6.30
2017-11-28T19:42:29.531Z,4.80
2017-11-28T19:44:56.962Z,6.20
2017-11-28T19:47:24.395Z,6.30
2017-11-28T19:49:52.275Z,6.30
2017-11-28T19:52:19.681Z,6.30
2017-11-28T19:54:47.868Z,6.20
2017-11-28T20:10:21.192Z,6.80
2017-11-28T20:12:48.653Z,6.50
2017-11-28T20:15:16.081Z,6.40
2017-11-28T20:17:43.525Z,6.20
2017-11-28T20:20:10.961Z,6.10
2017-11-28T20:22:38.394Z,6.00
2017-11-28T20:25:05.827Z,5.90
2017-11-28T20:27:33.287Z,5.80
2017-11-28T20:30:00.720Z,5.80
2017-11-28T20:32:28.161Z,5.70
2017-11-28T20:34:55.651Z,5.60
2017-11-28T20:37:23.090Z,5.60
2017-11-28T20:39:50.513Z,5.50
2017-11-28T20:42:17.937Z,5.50
2017-11-28T20:44:45.382Z,5.40
2017-11-28T20:47:12.808Z,5.40
2017-11-28T20:49:40.243Z,5.40
2017-11-28T20:52:08.450Z,5.30
2017-11-28T20:54:35.881Z,5.30
2017-11-28T20:57:03.314Z,5.30
2017-11-28T20:59:30.745Z,5.30
2017-11-28T21:01:58.170Z,5.40
2017-11-28T21:04:25.611Z,5.40
2017-11-28T21:06:53.029Z,5.40
2017-11-28T21:09:20.474Z,5.40
2017-11-28T21:11:47.916Z,5.40
2017-11-28T21:14:15.354Z,5.50
2017-11-28T21:16:42.782Z,5.50
2017-11-28T21:19:10.214Z,5.50
2017-11-28T21:21:38.834Z,5.50
2017-11-28T21:24:06.269Z,5.50
2017-11-28T21:26:33.715Z,5.50
2017-11-28T21:29:01.154Z,5.50
2017-11-28T21:31:28.589Z,5.50
2017-11-28T21:33:56.006Z,5.50
2017-11-28T21:36:23.446Z,5.50
2017-11-28T21:38:51.651Z,5.50
2017-11-28T21:41:19.087Z,5.50
2017-11-28T21:43:46.515Z,5.50
2017-11-28T21:46:14.724Z,5.40
2017-11-28T21:48:42.157Z,5.40
2017-11-28T21:51:09.593Z,5.40
2017-11-28T21:53:37.022Z,5.40
2017-11-28T21:56:04.464Z,5.40
2017-11-28T21:58:31.898Z,5.40
2017-11-28T22:00:59.335Z,5.40
2017-11-28T22:03:26.760Z,5.30
2017-11-28T22:05:54.216Z,5.30
2017-11-28T22:08:21.660Z,5.30
2017-11-28T22:10:49.083Z,5.20
2017-11-28T22:13:16.583Z,5.20
2017-11-28T22:15:44.007Z,5.20
2017-11-28T22:18:11.444Z,5.20
2017-11-28T22:20:38.867Z,5.20
2017-11-28T22:23:06.298Z,5.20
2017-11-28T22:25:33.718Z,5.10
2017-11-28T22:28:01.154Z,5.10
2017-11-28T22:30:28.587Z,5.10
2017-11-28T22:32:56.055Z,5.10
2017-11-28T22:35:23.478Z,5.10
2017-11-28T22:37:50.913Z,5.10
2017-11-28T22:40:18.341Z,5.20
2017-11-28T22:42:45.782Z,5.20
2017-11-28T22:45:13.211Z,5.20
2017-11-28T22:47:40.662Z,5.20
2017-11-28T22:50:08.087Z,5.20
2017-11-28T22:52:35.516Z,5.20
2017-11-28T22:55:03.723Z,5.20
2017-11-28T22:57:31.137Z,5.20
2017-11-28T22:59:58.574Z,5.10
2017-11-28T23:02:26.006Z,5.10
2017-11-28T23:04:53.467Z,5.10
2017-11-28T23:07:20.906Z,5.10
2017-11-28T23:09:48.347Z,5.10
2017-11-28T23:12:15.766Z,5.10
2017-11-28T23:14:53.861Z,5.10
2017-11-28T23:17:21.288Z,5.10
2017-11-28T23:19:48.948Z,5.10
2017-11-28T23:22:16.349Z,5.10
2017-11-28T23:24:44.550Z,5.00
2017-11-28T23:27:11.974Z,5.10
2017-11-28T23:29:39.413Z,5.00
2017-11-28T23:32:06.842Z,5.00
2017-11-28T23:34:34.273Z,5.00
2017-11-28T23:37:01.702Z,5.00
2017-11-28T23:39:29.898Z,5.00
2017-11-28T23:41:57.324Z,5.00
2017-11-28T23:44:25.687Z,4.90
2017-11-28T23:46:53.125Z,4.90
2017-11-28T23:49:20.562Z,4.90
2017-11-28T23:51:48.000Z,4.90
2017-11-28T23:54:15.422Z,4.90
2017-11-28T23:56:42.854Z,4.90
2017-11-28T23:59:10.290Z,4.90
